createdAt,value
2017-09-27T00:00:55.178Z,67.90
2017-09-27T00:03:22.839Z,65.90
2017-09-27T00:05:50.410Z,64.80
2017-09-27T00:08:17.978Z,65.00
2017-09-27T00:10:45.599Z,65.50
2017-09-27T00:13:13.215Z,64.40
2017-09-27T00:15:41.558Z,65.40
2017-09-27T00:18:09.151Z,65.40
2017-09-27T00:20:37.538Z,65.30
2017-09-27T00:23:05.931Z,64.50
2017-09-27T00:25:33.502Z,64.50
2017-09-27T00:28:01.083Z,66.00
2017-09-27T00:30:28.706Z,67.00
2017-09-27T00:32:57.048Z,66.50
2017-09-27T00:35:24.667Z,66.30
2017-09-27T00:37:52.246Z,66.50
2017-09-27T00:40:19.818Z,65.60
2017-09-27T00:42:47.443Z,65.10
2017-09-27T00:45:15.043Z,66.30
2017-09-27T00:47:42.656Z,67.10
2017-09-27T00:50:10.265Z,67.30
2017-09-27T00:52:37.898Z,67.10
2017-09-27T00:55:05.478Z,67.60
2017-09-27T00:57:33.047Z,67.50
2017-09-27T01:00:00.673Z,66.70
2017-09-27T01:02:28.291Z,68.50
2017-09-27T01:04:55.858Z,67.60
2017-09-27T01:07:23.476Z,67.10
2017-09-27T01:09:51.046Z,67.00
2017-09-27T01:12:18.676Z,68.00
2017-09-27T01:14:46.248Z,68.20
2017-09-27T01:17:13.815Z,66.70
2017-09-27T01:19:41.451Z,66.80
2017-09-27T01:22:09.796Z,65.60
2017-09-27T01:24:37.390Z,65.50
2017-09-27T01:27:05.807Z,66.10
2017-09-27T01:29:33.388Z,66.00
2017-09-27T01:32:00.971Z,66.20
2017-09-27T01:34:28.583Z,65.70
2017-09-27T01:36:56.215Z,66.30
2017-09-27T01:39:24.556Z,67.70
2017-09-27T01:41:52.199Z,67.70
2017-09-27T01:44:19.782Z,67.40
2017-09-27T01:46:47.401Z,66.20
2017-09-27T01:49:15.012Z,65.60
2017-09-27T01:51:42.626Z,64.90
2017-09-27T01:54:10.264Z,64.60
2017-09-27T01:56:37.847Z,64.70
2017-09-27T01:59:05.465Z,65.90
2017-09-27T02:01:33.042Z,65.70
2017-09-27T02:04:01.474Z,66.30
2017-09-27T02:06:29.080Z,66.30
2017-09-27T02:08:57.480Z,68.80
2017-09-27T02:11:25.058Z,68.60
2017-09-27T02:13:53.420Z,66.90
2017-09-27T02:16:21.039Z,66.80
2017-09-27T02:18:48.608Z,66.50
2017-09-27T02:21:16.197Z,67.20
2017-09-27T02:23:43.794Z,66.10
2017-09-27T02:26:11.426Z,65.80
2017-09-27T02:28:39.003Z,65.10
2017-09-27T02:31:06.576Z,65.30
2017-09-27T02:33:34.192Z,66.00
2017-09-27T02:36:02.571Z,68.20
2017-09-27T02:38:30.979Z,68.20
2017-09-27T02:40:58.612Z,68.20
2017-09-27T02:43:26.190Z,68.90
2017-09-27T02:45:53.774Z,69.70
2017-09-27T02:48:21.393Z,68.90
2017-09-27T02:50:49.803Z,71.40
2017-09-27T02:53:17.380Z,71.40
2017-09-27T02:55:44.957Z,71.00
2017-09-27T02:58:12.567Z,70.00
2017-09-27T03:00:40.160Z,69.20
2017-09-27T03:03:07.777Z,69.30
2017-09-27T03:05:36.105Z,70.70
2017-09-27T03:08:03.684Z,70.60
2017-09-27T03:10:31.311Z,71.30
2017-09-27T03:12:58.911Z,71.70
2017-09-27T03:15:26.506Z,70.50
2017-09-27T03:17:54.103Z,70.10
2017-09-27T03:20:21.670Z,71.60
2017-09-27T03:22:49.310Z,72.10
2017-09-27T03:25:16.931Z,71.00
2017-09-27T03:27:44.513Z,69.40
2017-09-27T03:30:12.860Z,71.90
2017-09-27T03:32:40.476Z,71.90
2017-09-27T03:35:08.058Z,72.00
2017-09-27T03:37:35.644Z,71.20
2017-09-27T03:40:03.314Z,69.90
2017-09-27T03:42:30.950Z,71.20
2017-09-27T03:44:58.518Z,72.50
2017-09-27T03:47:26.110Z,71.90
2017-09-27T03:49:54.507Z,69.30
2017-09-27T03:52:22.082Z,69.30
2017-09-27T03:54:49.650Z,68.90
2017-09-27T03:57:17.252Z,68.30
2017-09-27T03:59:44.889Z,67.90
2017-09-27T04:02:12.519Z,69.00
2017-09-27T04:04:40.100Z,70.00
2017-09-27T04:07:07.712Z,70.60
2017-09-27T04:09:36.086Z,72.00
2017-09-27T04:12:03.703Z,72.00
2017-09-27T04:14:31.276Z,71.30
2017-09-27T04:16:58.848Z,72.10
2017-09-27T04:19:26.475Z,70.90
2017-09-27T04:21:54.039Z,70.00
2017-09-27T04:24:21.617Z,70.00
2017-09-27T04:26:49.242Z,70.10
2017-09-27T04:29:16.866Z,70.60
2017-09-27T04:31:44.486Z,71.30
2017-09-27T04:34:12.123Z,71.40
2017-09-27T04:36:40.451Z,71.50
2017-09-27T04:39:08.032Z,71.40
2017-09-27T04:41:35.655Z,70.90
2017-09-27T04:44:03.226Z,72.10
2017-09-27T04:46:30.855Z,72.30
2017-09-27T04:48:58.432Z,72.40
2017-09-27T04:51:26.007Z,72.40
2017-09-27T04:53:53.632Z,71.90
2017-09-27T04:56:21.232Z,72.80
2017-09-27T04:58:48.840Z,72.20
2017-09-27T05:01:17.214Z,71.80
2017-09-27T05:03:45.551Z,72.00
2017-09-27T05:06:13.177Z,71.80
2017-09-27T05:08:40.754Z,71.60
2017-09-27T05:11:08.346Z,71.40
2017-09-27T05:13:35.963Z,71.90
2017-09-27T05:16:03.535Z,71.40
2017-09-27T05:18:31.116Z,71.30
2017-09-27T05:20:58.726Z,71.30
2017-09-27T05:23:27.109Z,75.00
2017-09-27T05:25:55.447Z,76.00
2017-09-27T05:28:23.057Z,76.00
2017-09-27T05:30:50.635Z,76.20
2017-09-27T05:33:18.259Z,75.80
2017-09-27T05:35:46.600Z,72.80
2017-09-27T05:38:14.203Z,72.80
2017-09-27T05:40:42.574Z,73.80
2017-09-27T05:43:10.252Z,73.80
2017-09-27T05:45:37.892Z,74.70
2017-09-27T05:48:05.456Z,74.10
2017-09-27T05:50:33.050Z,75.40
2017-09-27T05:53:00.901Z,77.20
2017-09-27T05:55:29.284Z,76.00
2017-09-27T05:57:56.854Z,75.90
2017-09-27T06:00:24.428Z,75.70
2017-09-27T06:02:52.042Z,76.00
2017-09-27T06:05:19.664Z,74.40
2017-09-27T06:07:47.234Z,74.30
2017-09-27T06:10:14.857Z,73.90
2017-09-27T06:12:42.429Z,74.90
2017-09-27T06:15:10.196Z,74.20
2017-09-27T06:17:37.849Z,73.90
2017-09-27T06:20:05.419Z,73.10
2017-09-27T06:22:32.989Z,74.30
2017-09-27T06:25:00.644Z,74.40
2017-09-27T06:27:28.212Z,73.60
2017-09-27T06:29:55.777Z,73.30
2017-09-27T06:32:23.402Z,73.80
2017-09-27T06:34:52.677Z,75.70
2017-09-27T06:37:20.262Z,75.70
2017-09-27T06:39:48.648Z,77.80
2017-09-27T06:42:16.255Z,77.80
2017-09-27T06:44:44.074Z,75.90
2017-09-27T06:47:12.401Z,73.80
2017-09-27T06:49:40.383Z,73.00
2017-09-27T06:52:08.038Z,74.60
2017-09-27T06:54:35.649Z,76.10
2017-09-27T06:57:03.222Z,76.50
2017-09-27T06:59:30.794Z,77.20
2017-09-27T07:01:58.430Z,75.20
2017-09-27T07:04:26.022Z,73.70
2017-09-27T07:06:53.602Z,72.70
2017-09-27T07:09:21.202Z,72.20
2017-09-27T07:11:49.532Z,74.60
2017-09-27T07:14:17.147Z,74.60
2017-09-27T07:16:45.539Z,73.40
2017-09-27T07:19:19.010Z,73.80
2017-09-27T07:21:47.468Z,72.80
2017-09-27T07:24:15.097Z,72.70
2017-09-27T07:26:43.516Z,72.00
2017-09-27T07:29:11.887Z,72.30
2017-09-27T07:31:39.506Z,72.30
2017-09-27T07:34:07.112Z,73.10
2017-09-27T07:36:34.742Z,72.40
2017-09-27T07:39:03.077Z,72.30
2017-09-27T07:41:31.484Z,71.60
2017-09-27T07:44:00.115Z,71.60
2017-09-27T07:46:27.694Z,72.60
2017-09-27T07:48:55.323Z,72.60
2017-09-27T07:51:22.894Z,72.00
2017-09-27T07:53:50.507Z,71.80
2017-09-27T07:56:18.092Z,71.20
2017-09-27T07:58:45.703Z,72.90
2017-09-27T08:01:13.342Z,73.70
2017-09-27T08:03:40.931Z,73.10
2017-09-27T08:06:09.302Z,73.30
2017-09-27T08:08:36.920Z,73.30
2017-09-27T08:11:04.535Z,72.30
2017-09-27T08:13:38.136Z,70.60
2017-09-27T08:16:06.503Z,70.20
2017-09-27T08:18:34.149Z,70.10
2017-09-27T08:21:01.714Z,70.00
2017-09-27T08:23:29.306Z,70.80
2017-09-27T08:25:57.721Z,69.70
2017-09-27T08:28:25.320Z,69.60
2017-09-27T08:30:52.927Z,70.20
2017-09-27T08:33:21.816Z,70.80
2017-09-27T08:35:49.422Z,68.60
2017-09-27T08:38:17.014Z,67.40
2017-09-27T08:40:45.430Z,66.20
2017-09-27T08:43:13.016Z,66.20
2017-09-27T08:45:40.620Z,66.80
2017-09-27T08:48:09.039Z,64.10
2017-09-27T08:50:36.674Z,64.10
2017-09-27T08:53:05.046Z,62.90
2017-09-27T08:55:32.756Z,62.90
2017-09-27T08:58:00.393Z,62.40
2017-09-27T09:00:27.975Z,62.80
2017-09-27T09:02:55.622Z,62.10
2017-09-27T09:05:23.350Z,60.50
2017-09-27T09:07:51.750Z,58.90
2017-09-27T09:10:20.191Z,60.10
2017-09-27T09:12:48.683Z,60.00
2017-09-27T09:15:16.415Z,60.30
2017-09-27T09:17:44.003Z,58.40
2017-09-27T09:20:11.596Z,56.10
2017-09-27T09:22:39.211Z,54.70
2017-09-27T09:25:06.781Z,55.10
2017-09-27T09:27:35.203Z,53.00
2017-09-27T09:30:02.777Z,53.00
2017-09-27T09:32:30.356Z,53.50
2017-09-27T09:34:58.069Z,54.50
2017-09-27T09:37:26.478Z,50.20
2017-09-27T09:39:54.103Z,50.20
2017-09-27T09:42:25.002Z,50.50
2017-09-27T09:44:52.665Z,52.40
2017-09-27T09:47:21.013Z,49.10
2017-09-27T09:49:48.596Z,49.10
2017-09-27T09:52:16.314Z,47.10
2017-09-27T09:54:44.043Z,48.00
2017-09-27T09:57:12.802Z,50.90
2017-09-27T09:59:40.370Z,49.40
2017-09-27T10:02:07.980Z,50.00
2017-09-27T10:04:35.886Z,48.10
2017-09-27T10:07:04.580Z,50.30
2017-09-27T10:09:32.238Z,48.80
2017-09-27T10:12:17.037Z,50.00
2017-09-27T10:15:06.519Z,53.20
2017-09-27T10:17:36.278Z,53.20
2017-09-27T10:20:03.907Z,53.10
2017-09-27T10:22:31.538Z,54.30
2017-09-27T10:24:59.213Z,53.20
2017-09-27T10:27:26.792Z,51.70
2017-09-27T10:29:54.383Z,51.30
2017-09-27T10:32:22.753Z,50.10
2017-09-27T10:34:51.099Z,45.60
2017-09-27T10:37:18.711Z,45.50
2017-09-27T10:39:46.356Z,45.70
2017-09-27T10:42:14.729Z,48.10
2017-09-27T10:44:43.113Z,48.50
2017-09-27T10:47:11.459Z,47.90
2017-09-27T10:49:39.143Z,47.90
2017-09-27T10:52:07.547Z,43.60
2017-09-27T10:54:35.174Z,43.60
2017-09-27T10:57:02.772Z,44.70
2017-09-27T10:59:30.442Z,47.20
2017-09-27T11:01:58.034Z,48.80
2017-09-27T11:04:26.307Z,45.30
2017-09-27T11:06:55.298Z,48.00
2017-09-27T11:09:25.049Z,48.00
2017-09-27T11:11:52.670Z,48.80
2017-09-27T11:14:20.437Z,49.50
2017-09-27T11:16:48.065Z,49.90
2017-09-27T11:19:15.722Z,47.10
2017-09-27T11:21:43.416Z,49.40
2017-09-27T11:24:10.999Z,48.00
2017-09-27T11:26:38.576Z,48.10
2017-09-27T11:29:06.204Z,49.20
2017-09-27T11:31:34.550Z,48.70
2017-09-27T11:34:02.916Z,48.60
2017-09-27T11:36:31.304Z,47.40
2017-09-27T11:38:59.704Z,43.70
2017-09-27T11:41:27.370Z,43.60
2017-09-27T11:43:54.962Z,44.10
2017-09-27T11:46:23.450Z,43.00
2017-09-27T11:48:51.072Z,45.70
2017-09-27T11:51:18.742Z,45.50
2017-09-27T11:53:46.396Z,47.40
2017-09-27T11:56:14.046Z,49.00
2017-09-27T11:58:41.744Z,49.20
2017-09-27T12:01:09.341Z,48.00
2017-09-27T12:03:36.919Z,42.40
2017-09-27T12:06:04.534Z,43.70
2017-09-27T12:08:32.158Z,43.40
2017-09-27T12:11:00.541Z,43.40
2017-09-27T12:13:28.151Z,43.40
2017-09-27T12:15:55.762Z,42.30
2017-09-27T12:18:23.396Z,39.10
2017-09-27T12:20:51.750Z,33.30
2017-09-27T12:23:19.379Z,33.20
2017-09-27T12:25:47.792Z,35.70
2017-09-27T12:28:15.385Z,35.60
2017-09-27T12:30:43.852Z,35.50
2017-09-27T12:33:11.433Z,36.20
2017-09-27T12:35:39.817Z,32.30
2017-09-27T12:38:08.954Z,35.00
2017-09-27T12:40:36.532Z,34.90
2017-09-27T12:43:04.097Z,33.50
2017-09-27T12:45:31.707Z,37.80
2017-09-27T12:47:59.275Z,38.50
2017-09-27T12:50:26.915Z,38.60
2017-09-27T12:52:55.260Z,38.90
2017-09-27T12:55:22.841Z,38.90
2017-09-27T12:57:51.485Z,40.30
2017-09-27T13:00:19.064Z,40.20
2017-09-27T13:02:46.774Z,40.40
2017-09-27T13:05:14.355Z,38.80
2017-09-27T13:07:42.008Z,40.90
2017-09-27T13:10:09.570Z,41.00
2017-09-27T13:12:37.159Z,41.20
2017-09-27T13:15:04.795Z,41.80
2017-09-27T13:17:32.455Z,41.80
2017-09-27T13:20:00.105Z,42.70
2017-09-27T13:22:28.443Z,41.60
2017-09-27T13:25:04.328Z,41.50
2017-09-27T13:27:32.670Z,43.00
2017-09-27T13:30:00.276Z,42.80
2017-09-27T13:32:28.922Z,43.50
2017-09-27T13:34:56.537Z,43.40
2017-09-27T13:37:24.148Z,41.70
2017-09-27T13:39:51.741Z,42.40
2017-09-27T13:42:20.122Z,42.70
2017-09-27T13:44:48.459Z,42.50
2017-09-27T13:47:16.120Z,42.50
2017-09-27T13:49:43.738Z,41.10
2017-09-27T13:52:11.316Z,40.20
2017-09-27T13:54:38.881Z,41.80
2017-09-27T13:57:06.524Z,41.60
2017-09-27T13:59:34.136Z,41.80
2017-09-27T14:02:01.719Z,42.30
2017-09-27T14:04:30.119Z,41.80
2017-09-27T14:06:57.725Z,41.70
2017-09-27T14:09:25.343Z,40.30
2017-09-27T14:11:52.987Z,41.00
2017-09-27T14:14:21.327Z,43.00
2017-09-27T14:16:48.938Z,42.90
2017-09-27T14:19:16.505Z,44.10
2017-09-27T14:21:44.116Z,43.00
2017-09-27T14:24:11.693Z,41.90
2017-09-27T14:26:39.271Z,40.70
2017-09-27T14:29:07.660Z,42.70
2017-09-27T14:31:35.996Z,41.70
2017-09-27T14:34:03.665Z,41.70
2017-09-27T14:36:31.283Z,40.30
2017-09-27T14:38:58.934Z,40.30
2017-09-27T14:41:26.665Z,41.60
2017-09-27T14:43:54.271Z,42.70
2017-09-27T14:46:22.346Z,41.50
2017-09-27T14:48:50.024Z,41.10
2017-09-27T14:51:17.619Z,41.10
2017-09-27T14:53:45.237Z,41.50
2017-09-27T14:56:12.862Z,41.40
2017-09-27T14:58:41.246Z,41.70
2017-09-27T15:01:09.592Z,42.00
2017-09-27T15:03:37.176Z,42.00
2017-09-27T15:06:04.814Z,42.80
2017-09-27T15:08:32.419Z,42.90
2017-09-27T15:11:00.026Z,43.50
2017-09-27T15:13:27.629Z,42.80
2017-09-27T15:15:56.105Z,42.10
2017-09-27T15:18:24.466Z,42.50
2017-09-27T15:20:52.864Z,42.60
2017-09-27T15:23:21.250Z,43.00
2017-09-27T15:26:06.050Z,43.00
2017-09-27T15:28:35.112Z,43.00
2017-09-27T15:31:06.466Z,44.00
2017-09-27T15:33:34.116Z,44.00
2017-09-27T15:36:02.470Z,43.80
2017-09-27T15:38:30.257Z,43.70
2017-09-27T15:40:58.975Z,43.80
2017-09-27T15:43:26.542Z,43.80
2017-09-27T15:45:54.358Z,44.30
2017-09-27T15:48:22.006Z,44.20
2017-09-27T15:50:49.617Z,43.70
2017-09-27T15:53:36.177Z,43.50
2017-09-27T15:56:05.263Z,44.10
2017-09-27T15:58:32.871Z,44.60
2017-09-27T16:01:00.500Z,44.50
2017-09-27T16:03:28.113Z,44.00
2017-09-27T16:05:55.702Z,44.10
2017-09-27T16:08:26.441Z,45.40
2017-09-27T16:10:54.918Z,45.00
2017-09-27T16:13:23.257Z,45.00
2017-09-27T16:15:52.947Z,45.90
2017-09-27T16:18:23.006Z,45.90
2017-09-27T16:20:52.737Z,45.90
2017-09-27T16:23:22.416Z,45.60
2017-09-27T16:25:53.148Z,45.10
2017-09-27T16:28:22.684Z,45.50
2017-09-27T16:30:52.423Z,45.60
2017-09-27T16:33:21.959Z,46.20
2017-09-27T16:35:51.635Z,46.10
2017-09-27T16:38:21.468Z,46.70
2017-09-27T16:40:52.345Z,47.10
2017-09-27T16:43:23.828Z,46.60
2017-09-27T16:45:53.933Z,46.60
2017-09-27T16:48:24.554Z,46.60
2017-09-27T16:50:55.353Z,47.50
2017-09-27T16:53:25.979Z,47.90
2017-09-27T16:55:56.338Z,48.30
2017-09-27T16:58:26.224Z,48.20
2017-09-27T17:00:57.660Z,52.40
2017-09-27T17:03:27.541Z,52.40
2017-09-27T17:05:57.197Z,52.30
2017-09-27T17:08:28.759Z,54.10
2017-09-27T17:10:58.615Z,54.10
2017-09-27T17:13:28.571Z,56.90
2017-09-27T17:15:59.204Z,58.50
2017-09-27T17:18:28.840Z,58.70
2017-09-27T17:20:58.605Z,60.80
2017-09-27T17:23:29.725Z,60.60
2017-09-27T17:25:59.551Z,60.10
2017-09-27T17:28:29.158Z,58.40
2017-09-27T17:31:01.019Z,57.10
2017-09-27T17:33:33.822Z,56.40
2017-09-27T17:36:04.970Z,55.80
2017-09-27T17:38:35.015Z,58.80
2017-09-27T17:41:04.809Z,58.50
2017-09-27T17:43:35.514Z,58.10
2017-09-27T17:46:06.603Z,57.50
2017-09-27T17:48:37.976Z,56.70
2017-09-27T17:51:07.538Z,56.70
2017-09-27T17:53:37.405Z,56.30
2017-09-27T17:56:07.344Z,58.40
2017-09-27T17:58:37.356Z,60.10
2017-09-27T18:01:06.935Z,59.40
2017-09-27T18:03:37.706Z,60.30
2017-09-27T18:06:22.873Z,61.00
2017-09-27T18:08:59.134Z,60.20
2017-09-27T18:11:34.184Z,59.10
2017-09-27T18:14:20.657Z,60.30
2017-09-27T18:17:05.976Z,59.90
2017-09-27T18:19:36.103Z,61.10
2017-09-27T18:22:07.346Z,60.00
2017-09-27T18:24:37.931Z,58.70
2017-09-27T18:27:08.543Z,57.80
2017-09-27T18:29:38.472Z,57.40
2017-09-27T18:32:08.601Z,57.10
2017-09-27T18:34:39.181Z,57.30
2017-09-27T18:37:08.998Z,57.10
2017-09-27T18:39:38.776Z,58.30
2017-09-27T18:42:08.603Z,58.00
2017-09-27T18:44:38.304Z,58.40
2017-09-27T18:47:07.964Z,57.80
2017-09-27T18:49:38.639Z,58.10
2017-09-27T18:52:08.227Z,57.70
2017-09-27T18:54:38.152Z,57.70
2017-09-27T18:57:08.018Z,57.90
2017-09-27T18:59:38.488Z,57.70
2017-09-27T19:02:08.080Z,57.70
2017-09-27T19:04:37.442Z,58.10
2017-09-27T19:07:08.219Z,60.40
2017-09-27T19:09:38.093Z,62.20
2017-09-27T19:12:08.540Z,61.10
2017-09-27T19:14:39.735Z,63.10
2017-09-27T19:17:10.921Z,63.10
2017-09-27T19:19:42.574Z,61.20
2017-09-27T19:22:12.962Z,60.80
2017-09-27T19:24:42.620Z,60.80
2017-09-27T19:27:13.217Z,60.40
2017-09-27T19:29:44.116Z,60.40
2017-09-27T19:32:13.894Z,60.50
2017-09-27T19:34:44.016Z,59.10
2017-09-27T19:37:14.338Z,58.80
2017-09-27T19:39:44.968Z,59.30
2017-09-27T19:42:14.685Z,58.80
2017-09-27T19:44:46.353Z,58.90
2017-09-27T19:47:16.958Z,59.70
2017-09-27T19:49:47.627Z,59.60
2017-09-27T19:52:17.308Z,61.10
2017-09-27T19:54:48.156Z,61.90
2017-09-27T19:57:18.861Z,62.00
2017-09-27T19:59:50.352Z,62.00
2017-09-27T20:02:21.080Z,61.80
2017-09-27T20:04:50.880Z,61.80
2017-09-27T20:07:20.883Z,61.80
2017-09-27T20:09:50.812Z,63.30
2017-09-27T20:12:22.118Z,63.40
2017-09-27T20:14:52.821Z,63.40
2017-09-27T20:17:23.372Z,63.50
2017-09-27T20:19:53.008Z,63.40
2017-09-27T20:22:32.492Z,62.60
2017-09-27T20:25:02.247Z,63.00
2017-09-27T20:27:31.978Z,63.20
2017-09-27T20:30:01.631Z,62.70
2017-09-27T20:32:32.379Z,62.60
2017-09-27T20:35:02.399Z,62.40
2017-09-27T20:37:32.959Z,64.00
2017-09-27T20:40:03.672Z,64.00
2017-09-27T20:42:33.375Z,63.60
2017-09-27T20:45:04.180Z,64.70
2017-09-27T20:47:34.787Z,65.40
2017-09-27T20:50:04.325Z,65.40
2017-09-27T20:52:34.187Z,65.00
2017-09-27T20:55:04.708Z,64.10
2017-09-27T20:57:34.518Z,63.30
2017-09-27T21:00:04.233Z,64.00
2017-09-27T21:02:34.700Z,63.90
2017-09-27T21:05:04.450Z,63.60
2017-09-27T21:07:36.219Z,63.20
2017-09-27T21:10:07.378Z,62.90
2017-09-27T21:12:38.238Z,62.50
2017-09-27T21:15:08.362Z,63.60
2017-09-27T21:17:39.161Z,64.80
2017-09-27T21:20:17.833Z,64.50
2017-09-27T21:22:57.704Z,64.20
2017-09-27T21:25:27.893Z,63.80
2017-09-27T21:27:57.879Z,63.70
2017-09-27T21:30:27.782Z,62.80
2017-09-27T21:32:57.677Z,63.30
2017-09-27T21:35:28.353Z,63.90
2017-09-27T21:37:59.141Z,64.30
2017-09-27T21:40:29.729Z,62.70
2017-09-27T21:42:59.352Z,62.60
2017-09-27T21:45:29.294Z,62.60
2017-09-27T21:48:00.633Z,62.70
2017-09-27T21:50:31.098Z,62.70
2017-09-27T21:53:00.806Z,62.60
2017-09-27T21:55:30.699Z,62.70
2017-09-27T21:58:01.923Z,63.30
2017-09-27T22:00:31.812Z,63.20
2017-09-27T22:03:01.485Z,64.00
2017-09-27T22:05:31.235Z,64.30
2017-09-27T22:08:01.046Z,64.60
2017-09-27T22:10:33.454Z,65.10
2017-09-27T22:13:07.391Z,64.80
2017-09-27T22:15:38.730Z,64.60
2017-09-27T22:18:09.431Z,65.10
2017-09-27T22:20:39.118Z,66.70
2017-09-27T22:23:08.746Z,67.40
2017-09-27T22:25:39.436Z,68.90
2017-09-27T22:28:10.941Z,68.90
2017-09-27T22:30:42.701Z,68.90
2017-09-27T22:33:13.355Z,67.70
2017-09-27T22:35:45.286Z,67.10
2017-09-27T22:38:15.153Z,67.10
2017-09-27T22:40:44.793Z,67.50
2017-09-27T22:43:21.628Z,68.00
2017-09-27T22:45:52.272Z,67.30
2017-09-27T22:48:22.081Z,67.40
2017-09-27T22:50:52.146Z,66.60
2017-09-27T22:53:22.851Z,65.30
2017-09-27T22:55:54.673Z,64.20
2017-09-27T22:58:25.169Z,66.20
2017-09-27T23:00:55.031Z,66.10
2017-09-27T23:03:28.766Z,65.90
2017-09-27T23:05:58.533Z,64.90
2017-09-27T23:08:30.900Z,65.80
2017-09-27T23:11:01.376Z,66.50
2017-09-27T23:13:31.151Z,66.20
2017-09-27T23:16:04.355Z,66.20
2017-09-27T23:18:35.856Z,66.50
2017-09-27T23:21:08.318Z,66.50
2017-09-27T23:23:38.004Z,66.10
2017-09-27T23:26:11.379Z,66.50
2017-09-27T23:28:42.742Z,65.90
2017-09-27T23:31:13.836Z,65.80
2017-09-27T23:33:43.556Z,67.00
2017-09-27T23:36:12.919Z,67.30
2017-09-27T23:38:45.474Z,66.90
2017-09-27T23:41:15.363Z,65.90
2017-09-27T23:43:45.760Z,65.90
2017-09-27T23:46:16.628Z,65.30
2017-09-27T23:48:47.095Z,66.00
2017-09-27T23:51:16.943Z,66.00
2017-09-27T23:53:46.678Z,67.00
2017-09-27T23:56:20.733Z,68.50
2017-09-27T23:58:50.659Z,68.00
